Terminal Aerodrome Forecast
Issued by NWS

Home | Current Version | Previous Version | Graphics & Text | Print | Product List | Glossary On
Versions: 1 2 3 4 5 6 7 8 9 10 11 12 13
000
FTUS43 KBIS 032320
TAFDIK
TAF
KDIK 032320Z 0400/0424 36014G20KT P6SM FEW200
     FM040200 04006KT P6SM FEW250
     FM040500 12004KT P6SM SKC
     FM040900 18005KT P6SM SKC
     FM041900 18012KT P6SM FEW250=

USA.gov is the U.S. government's official web portal to all federal, state and local government web resources and services.